sensor_id;sensor_type;location;lat;lon;timestamp;P1;durP1;ratioP1;P2;durP2;ratioP2
325;SDS011;150;52.352;14.058;2023-09-30T00:01:02;2.45;;;1.08;;
325;SDS011;150;52.352;14.058;2023-09-30T00:03:29;3.10;;;1.13;;
325;SDS011;150;52.352;14.058;2023-09-30T00:05:55;1.50;;;0.80;;
325;SDS011;150;52.352;14.058;2023-09-30T00:08:23;3.47;;;0.98;;
325;SDS011;150;52.352;14.058;2023-09-30T00:10:51;1.80;;;0.70;;
325;SDS011;150;52.352;14.058;2023-09-30T00:13:19;2.80;;;1.50;;
325;SDS011;150;52.352;14.058;2023-09-30T00:15:45;1.70;;;0.70;;
325;SDS011;150;52.352;14.058;2023-09-30T00:18:12;2.50;;;1.05;;
325;SDS011;150;52.352;14.058;2023-09-30T00:20:39;1.13;;;0.60;;
325;SDS011;150;52.352;14.058;2023-09-30T00:23:05;1.98;;;0.70;;
325;SDS011;150;52.352;14.058;2023-09-30T00:25:32;2.00;;;0.70;;
325;SDS011;150;52.352;14.058;2023-09-30T00:28:00;1.40;;;0.60;;
325;SDS011;150;52.352;14.058;2023-09-30T00:30:27;3.20;;;0.52;;
325;SDS011;150;52.352;14.058;2023-09-30T00:32:53;1.40;;;0.73;;
325;SDS011;150;52.352;14.058;2023-09-30T00:35:20;1.30;;;0.60;;
325;SDS011;150;52.352;14.058;2023-09-30T00:37:47;2.00;;;0.82;;
325;SDS011;150;52.352;14.058;2023-09-30T00:40:14;2.00;;;0.90;;
325;SDS011;150;52.352;14.058;2023-09-30T00:42:40;2.42;;;0.70;;
325;SDS011;150;52.352;14.058;2023-09-30T00:45:09;1.60;;;0.52;;
325;SDS011;150;52.352;14.058;2023-09-30T00:47:36;1.20;;;0.50;;
325;SDS011;150;52.352;14.058;2023-09-30T00:50:03;1.52;;;0.70;;
325;SDS011;150;52.352;14.058;2023-09-30T00:52:33;1.20;;;0.50;;
325;SDS011;150;52.352;14.058;2023-09-30T00:55:01;1.90;;;0.90;;
325;SDS011;150;52.352;14.058;2023-09-30T00:57:30;2.80;;;1.00;;
325;SDS011;150;52.352;14.058;2023-09-30T00:59:57;2.40;;;0.80;;
325;SDS011;150;52.352;14.058;2023-09-30T01:02:25;3.53;;;0.90;;
325;SDS011;150;52.352;14.058;2023-09-30T01:04:52;1.45;;;0.75;;
325;SDS011;150;52.352;14.058;2023-09-30T01:07:19;1.90;;;0.70;;
325;SDS011;150;52.352;14.058;2023-09-30T01:09:47;5.10;;;1.40;;
325;SDS011;150;52.352;14.058;2023-09-30T01:12:14;1.55;;;0.65;;
325;SDS011;150;52.352;14.058;2023-09-30T01:14:40;2.10;;;0.90;;
325;SDS011;150;52.352;14.058;2023-09-30T01:17:07;4.13;;;1.30;;
325;SDS011;150;52.352;14.058;2023-09-30T01:19:37;2.05;;;0.85;;
325;SDS011;150;52.352;14.058;2023-09-30T01:22:05;3.30;;;0.90;;
325;SDS011;150;52.352;14.058;2023-09-30T01:24:37;2.30;;;0.60;;
325;SDS011;150;52.352;14.058;2023-09-30T01:27:05;2.30;;;1.00;;
325;SDS011;150;52.352;14.058;2023-09-30T01:29:31;1.42;;;0.82;;
325;SDS011;150;52.352;14.058;2023-09-30T01:31:58;2.28;;;1.17;;
325;SDS011;150;52.352;14.058;2023-09-30T01:34:25;4.80;;;1.00;;
325;SDS011;150;52.352;14.058;2023-09-30T01:36:52;3.40;;;1.10;;
325;SDS011;150;52.352;14.058;2023-09-30T01:39:20;3.42;;;1.00;;
325;SDS011;150;52.352;14.058;2023-09-30T01:41:47;2.15;;;0.82;;
325;SDS011;150;52.352;14.058;2023-09-30T01:44:14;4.40;;;1.20;;
325;SDS011;150;52.352;14.058;2023-09-30T01:46:40;2.30;;;0.90;;
325;SDS011;150;52.352;14.058;2023-09-30T01:49:07;5.10;;;2.50;;
325;SDS011;150;52.352;14.058;2023-09-30T01:51:33;3.33;;;1.33;;
325;SDS011;150;52.352;14.058;2023-09-30T01:54:00;2.17;;;0.90;;
325;SDS011;150;52.352;14.058;2023-09-30T01:56:28;5.07;;;1.00;;
325;SDS011;150;52.352;14.058;2023-09-30T01:58:56;3.85;;;1.30;;
325;SDS011;150;52.352;14.058;2023-09-30T02:01:23;2.63;;;1.00;;
325;SDS011;150;52.352;14.058;2023-09-30T02:03:50;4.28;;;1.27;;
325;SDS011;150;52.352;14.058;2023-09-30T02:06:16;4.05;;;1.40;;
325;SDS011;150;52.352;14.058;2023-09-30T02:08:43;3.30;;;1.33;;
325;SDS011;150;52.352;14.058;2023-09-30T02:11:10;6.63;;;1.17;;
325;SDS011;150;52.352;14.058;2023-09-30T02:13:39;3.70;;;0.90;;
325;SDS011;150;52.352;14.058;2023-09-30T02:16:10;5.78;;;1.48;;
325;SDS011;150;52.352;14.058;2023-09-30T02:18:37;4.18;;;1.40;;
325;SDS011;150;52.352;14.058;2023-09-30T02:21:05;4.38;;;1.15;;
325;SDS011;150;52.352;14.058;2023-09-30T02:23:32;2.80;;;0.90;;
325;SDS011;150;52.352;14.058;2023-09-30T02:25:59;3.00;;;1.00;;
325;SDS011;150;52.352;14.058;2023-09-30T02:28:25;3.80;;;1.20;;
325;SDS011;150;52.352;14.058;2023-09-30T02:30:53;4.32;;;1.48;;
325;SDS011;150;52.352;14.058;2023-09-30T02:33:20;3.97;;;0.90;;
325;SDS011;150;52.352;14.058;2023-09-30T02:35:47;2.90;;;1.40;;
325;SDS011;150;52.352;14.058;2023-09-30T02:38:15;3.80;;;1.75;;
325;SDS011;150;52.352;14.058;2023-09-30T02:40:42;4.10;;;1.60;;
325;SDS011;150;52.352;14.058;2023-09-30T02:43:11;3.85;;;1.95;;
325;SDS011;150;52.352;14.058;2023-09-30T02:45:38;4.45;;;1.50;;
325;SDS011;150;52.352;14.058;2023-09-30T02:48:06;3.93;;;1.77;;
325;SDS011;150;52.352;14.058;2023-09-30T02:50:33;3.85;;;1.23;;
325;SDS011;150;52.352;14.058;2023-09-30T02:53:00;4.22;;;1.67;;
325;SDS011;150;52.352;14.058;2023-09-30T02:55:26;6.10;;;1.50;;
325;SDS011;150;52.352;14.058;2023-09-30T02:57:53;5.70;;;1.40;;
325;SDS011;150;52.352;14.058;2023-09-30T03:00:21;4.45;;;1.50;;
325;SDS011;150;52.352;14.058;2023-09-30T03:02:49;4.43;;;2.25;;
325;SDS011;150;52.352;14.058;2023-09-30T03:05:18;8.30;;;2.03;;
325;SDS011;150;52.352;14.058;2023-09-30T03:07:46;5.60;;;1.92;;
325;SDS011;150;52.352;14.058;2023-09-30T03:10:13;6.72;;;1.98;;
325;SDS011;150;52.352;14.058;2023-09-30T03:12:45;6.93;;;1.67;;
325;SDS011;150;52.352;14.058;2023-09-30T03:15:12;4.78;;;1.38;;
325;SDS011;150;52.352;14.058;2023-09-30T03:17:39;3.67;;;1.27;;
325;SDS011;150;52.352;14.058;2023-09-30T03:20:07;4.50;;;1.60;;
325;SDS011;150;52.352;14.058;2023-09-30T03:22:38;5.75;;;1.77;;
325;SDS011;150;52.352;14.058;2023-09-30T03:25:05;6.40;;;1.90;;
325;SDS011;150;52.352;14.058;2023-09-30T03:27:33;6.57;;;1.80;;
325;SDS011;150;52.352;14.058;2023-09-30T03:30:00;5.07;;;1.88;;
325;SDS011;150;52.352;14.058;2023-09-30T03:32:27;8.50;;;2.03;;
325;SDS011;150;52.352;14.058;2023-09-30T03:34:54;2.40;;;1.20;;
325;SDS011;150;52.352;14.058;2023-09-30T03:37:24;4.53;;;1.65;;
325;SDS011;150;52.352;14.058;2023-09-30T03:39:53;5.10;;;1.88;;
325;SDS011;150;52.352;14.058;2023-09-30T03:42:19;7.00;;;1.60;;
325;SDS011;150;52.352;14.058;2023-09-30T03:44:46;3.08;;;1.80;;
325;SDS011;150;52.352;14.058;2023-09-30T03:47:13;6.20;;;1.30;;
325;SDS011;150;52.352;14.058;2023-09-30T03:49:40;4.10;;;1.35;;
325;SDS011;150;52.352;14.058;2023-09-30T03:52:07;5.20;;;1.63;;
325;SDS011;150;52.352;14.058;2023-09-30T03:54:34;5.70;;;1.95;;
325;SDS011;150;52.352;14.058;2023-09-30T03:57:02;5.72;;;2.00;;
325;SDS011;150;52.352;14.058;2023-09-30T03:59:29;8.45;;;1.50;;
325;SDS011;150;52.352;14.058;2023-09-30T04:01:56;3.30;;;1.20;;
325;SDS011;150;52.352;14.058;2023-09-30T04:04:23;6.35;;;1.55;;
325;SDS011;150;52.352;14.058;2023-09-30T04:06:50;5.60;;;2.37;;
325;SDS011;150;52.352;14.058;2023-09-30T04:09:17;5.45;;;2.30;;
325;SDS011;150;52.352;14.058;2023-09-30T04:11:44;3.13;;;1.33;;
325;SDS011;150;52.352;14.058;2023-09-30T04:14:12;5.70;;;2.42;;
325;SDS011;150;52.352;14.058;2023-09-30T04:16:42;11.65;;;2.08;;
325;SDS011;150;52.352;14.058;2023-09-30T04:19:09;3.88;;;1.20;;
325;SDS011;150;52.352;14.058;2023-09-30T04:21:36;4.03;;;1.40;;
325;SDS011;150;52.352;14.058;2023-09-30T04:24:04;6.57;;;2.20;;
325;SDS011;150;52.352;14.058;2023-09-30T04:26:31;4.18;;;1.90;;
325;SDS011;150;52.352;14.058;2023-09-30T04:28:58;4.65;;;1.80;;
325;SDS011;150;52.352;14.058;2023-09-30T04:31:27;4.30;;;1.20;;
325;SDS011;150;52.352;14.058;2023-09-30T04:33:54;4.18;;;1.48;;
325;SDS011;150;52.352;14.058;2023-09-30T04:36:22;7.85;;;2.00;;
325;SDS011;150;52.352;14.058;2023-09-30T04:38:49;4.30;;;1.80;;
325;SDS011;150;52.352;14.058;2023-09-30T04:41:15;4.55;;;2.03;;
325;SDS011;150;52.352;14.058;2023-09-30T04:43:42;5.28;;;1.80;;
325;SDS011;150;52.352;14.058;2023-09-30T04:46:09;3.45;;;1.23;;
325;SDS011;150;52.352;14.058;2023-09-30T04:48:38;13.88;;;2.53;;
325;SDS011;150;52.352;14.058;2023-09-30T04:51:08;6.72;;;1.85;;
325;SDS011;150;52.352;14.058;2023-09-30T04:53:36;9.03;;;2.17;;
325;SDS011;150;52.352;14.058;2023-09-30T04:56:03;3.40;;;1.48;;
325;SDS011;150;52.352;14.058;2023-09-30T04:58:30;7.43;;;1.85;;
325;SDS011;150;52.352;14.058;2023-09-30T05:00:57;5.03;;;1.90;;
325;SDS011;150;52.352;14.058;2023-09-30T05:03:23;5.38;;;2.00;;
325;SDS011;150;52.352;14.058;2023-09-30T05:16:12;5.67;;;1.73;;
325;SDS011;150;52.352;14.058;2023-09-30T05:18:41;5.57;;;1.90;;
325;SDS011;150;52.352;14.058;2023-09-30T05:21:18;4.68;;;1.83;;
325;SDS011;150;52.352;14.058;2023-09-30T05:24:04;7.30;;;2.47;;
325;SDS011;150;52.352;14.058;2023-09-30T05:26:49;6.47;;;2.10;;
325;SDS011;150;52.352;14.058;2023-09-30T05:29:20;4.32;;;2.15;;
325;SDS011;150;52.352;14.058;2023-09-30T05:32:12;4.72;;;1.58;;
325;SDS011;150;52.352;14.058;2023-09-30T05:34:51;8.95;;;2.70;;
325;SDS011;150;52.352;14.058;2023-09-30T05:37:41;5.80;;;1.80;;
325;SDS011;150;52.352;14.058;2023-09-30T05:40:33;5.90;;;1.80;;
325;SDS011;150;52.352;14.058;2023-09-30T05:43:12;7.63;;;2.63;;
325;SDS011;150;52.352;14.058;2023-09-30T05:45:44;4.22;;;1.70;;
325;SDS011;150;52.352;14.058;2023-09-30T05:48:15;3.77;;;2.20;;
325;SDS011;150;52.352;14.058;2023-09-30T05:50:42;2.57;;;1.63;;
325;SDS011;150;52.352;14.058;2023-09-30T05:53:08;3.65;;;1.83;;
325;SDS011;150;52.352;14.058;2023-09-30T05:55:36;6.00;;;1.90;;
325;SDS011;150;52.352;14.058;2023-09-30T05:58:03;4.75;;;2.63;;
325;SDS011;150;52.352;14.058;2023-09-30T06:00:30;9.45;;;2.00;;
325;SDS011;150;52.352;14.058;2023-09-30T06:03:00;9.40;;;3.65;;
325;SDS011;150;52.352;14.058;2023-09-30T06:05:30;5.05;;;2.30;;
325;SDS011;150;52.352;14.058;2023-09-30T06:07:57;4.05;;;1.80;;
325;SDS011;150;52.352;14.058;2023-09-30T06:10:25;5.00;;;1.70;;
325;SDS011;150;52.352;14.058;2023-09-30T06:13:12;7.90;;;2.00;;
325;SDS011;150;52.352;14.058;2023-09-30T06:15:42;4.25;;;1.80;;
325;SDS011;150;52.352;14.058;2023-09-30T06:18:11;6.70;;;2.00;;
325;SDS011;150;52.352;14.058;2023-09-30T06:20:44;5.63;;;2.42;;
325;SDS011;150;52.352;14.058;2023-09-30T06:23:10;5.65;;;1.92;;
325;SDS011;150;52.352;14.058;2023-09-30T06:25:41;7.15;;;2.40;;
325;SDS011;150;52.352;14.058;2023-09-30T06:28:08;3.63;;;1.73;;
325;SDS011;150;52.352;14.058;2023-09-30T06:30:48;4.90;;;1.80;;
325;SDS011;150;52.352;14.058;2023-09-30T06:33:15;8.17;;;2.27;;
325;SDS011;150;52.352;14.058;2023-09-30T06:35:43;9.02;;;2.95;;
325;SDS011;150;52.352;14.058;2023-09-30T06:38:15;4.97;;;2.03;;
325;SDS011;150;52.352;14.058;2023-09-30T06:40:43;4.90;;;2.10;;
325;SDS011;150;52.352;14.058;2023-09-30T06:43:11;5.53;;;1.80;;
325;SDS011;150;52.352;14.058;2023-09-30T06:50:05;6.72;;;2.00;;
325;SDS011;150;52.352;14.058;2023-09-30T06:52:59;5.57;;;1.80;;
325;SDS011;150;52.352;14.058;2023-09-30T06:55:52;4.43;;;2.20;;
325;SDS011;150;52.352;14.058;2023-09-30T06:59:17;5.93;;;2.85;;
325;SDS011;150;52.352;14.058;2023-09-30T07:01:44;7.43;;;2.80;;
325;SDS011;150;52.352;14.058;2023-09-30T07:04:10;4.35;;;2.00;;
325;SDS011;150;52.352;14.058;2023-09-30T07:06:40;4.35;;;2.67;;
325;SDS011;150;52.352;14.058;2023-09-30T07:09:11;9.43;;;2.20;;
325;SDS011;150;52.352;14.058;2023-09-30T07:11:40;4.70;;;1.90;;
325;SDS011;150;52.352;14.058;2023-09-30T07:14:07;8.30;;;2.13;;
325;SDS011;150;52.352;14.058;2023-09-30T07:16:44;9.43;;;2.58;;
325;SDS011;150;52.352;14.058;2023-09-30T07:19:18;3.37;;;1.57;;
325;SDS011;150;52.352;14.058;2023-09-30T07:21:50;8.52;;;2.60;;
325;SDS011;150;52.352;14.058;2023-09-30T07:24:19;11.43;;;2.67;;
325;SDS011;150;52.352;14.058;2023-09-30T07:26:48;7.82;;;2.25;;
325;SDS011;150;52.352;14.058;2023-09-30T07:29:27;6.35;;;2.30;;
325;SDS011;150;52.352;14.058;2023-09-30T07:32:07;8.88;;;2.92;;
325;SDS011;150;52.352;14.058;2023-09-30T07:34:51;8.97;;;4.70;;
325;SDS011;150;52.352;14.058;2023-09-30T07:37:28;8.53;;;2.60;;
325;SDS011;150;52.352;14.058;2023-09-30T07:39:59;3.95;;;1.98;;
325;SDS011;150;52.352;14.058;2023-09-30T07:42:39;6.68;;;2.20;;
325;SDS011;150;52.352;14.058;2023-09-30T07:45:08;8.75;;;2.90;;
325;SDS011;150;52.352;14.058;2023-09-30T07:47:45;5.10;;;2.35;;
325;SDS011;150;52.352;14.058;2023-09-30T07:50:15;5.78;;;1.83;;
325;SDS011;150;52.352;14.058;2023-09-30T07:52:44;5.15;;;2.30;;
325;SDS011;150;52.352;14.058;2023-09-30T07:55:13;9.20;;;2.85;;
325;SDS011;150;52.352;14.058;2023-09-30T07:57:40;8.07;;;2.47;;
325;SDS011;150;52.352;14.058;2023-09-30T08:00:17;7.70;;;2.97;;
325;SDS011;150;52.352;14.058;2023-09-30T08:02:54;9.07;;;2.80;;
325;SDS011;150;52.352;14.058;2023-09-30T08:05:31;5.47;;;2.38;;
325;SDS011;150;52.352;14.058;2023-09-30T08:08:03;5.40;;;1.77;;
325;SDS011;150;52.352;14.058;2023-09-30T08:10:44;7.00;;;2.30;;
325;SDS011;150;52.352;14.058;2023-09-30T08:13:31;5.00;;;1.70;;
325;SDS011;150;52.352;14.058;2023-09-30T08:16:06;8.67;;;2.27;;
325;SDS011;150;52.352;14.058;2023-09-30T08:18:36;6.35;;;2.75;;
325;SDS011;150;52.352;14.058;2023-09-30T08:21:08;4.68;;;2.20;;
325;SDS011;150;52.352;14.058;2023-09-30T08:23:46;3.85;;;1.60;;
325;SDS011;150;52.352;14.058;2023-09-30T08:26:28;4.40;;;2.05;;
325;SDS011;150;52.352;14.058;2023-09-30T08:29:09;9.95;;;3.33;;
325;SDS011;150;52.352;14.058;2023-09-30T08:31:45;6.10;;;2.00;;
325;SDS011;150;52.352;14.058;2023-09-30T08:34:16;7.25;;;2.30;;
325;SDS011;150;52.352;14.058;2023-09-30T08:37:16;3.17;;;1.70;;
325;SDS011;150;52.352;14.058;2023-09-30T08:39:48;5.17;;;2.27;;
325;SDS011;150;52.352;14.058;2023-09-30T08:42:16;4.15;;;2.40;;
325;SDS011;150;52.352;14.058;2023-09-30T08:45:04;7.50;;;2.90;;
325;SDS011;150;52.352;14.058;2023-09-30T08:47:44;11.80;;;2.72;;
325;SDS011;150;52.352;14.058;2023-09-30T08:50:15;7.60;;;2.92;;
325;SDS011;150;52.352;14.058;2023-09-30T08:53:09;4.47;;;2.13;;
325;SDS011;150;52.352;14.058;2023-09-30T08:55:52;6.00;;;2.00;;
325;SDS011;150;52.352;14.058;2023-09-30T08:58:46;7.25;;;2.42;;
325;SDS011;150;52.352;14.058;2023-09-30T09:01:29;6.68;;;2.28;;
325;SDS011;150;52.352;14.058;2023-09-30T09:05:18;7.25;;;2.20;;
325;SDS011;150;52.352;14.058;2023-09-30T09:07:30;7.70;;;2.75;;
325;SDS011;150;52.352;14.058;2023-09-30T09:10:03;7.80;;;2.50;;
325;SDS011;150;52.352;14.058;2023-09-30T09:12:39;8.98;;;2.33;;
325;SDS011;150;52.352;14.058;2023-09-30T09:15:30;5.45;;;1.90;;
325;SDS011;150;52.352;14.058;2023-09-30T09:18:15;8.40;;;2.00;;
325;SDS011;150;52.352;14.058;2023-09-30T09:21:14;4.90;;;2.10;;
325;SDS011;150;52.352;14.058;2023-09-30T09:23:59;9.05;;;4.18;;
325;SDS011;150;52.352;14.058;2023-09-30T09:26:35;7.13;;;3.03;;
325;SDS011;150;52.352;14.058;2023-09-30T09:29:17;3.78;;;1.30;;
325;SDS011;150;52.352;14.058;2023-09-30T09:32:26;4.35;;;1.67;;
325;SDS011;150;52.352;14.058;2023-09-30T09:35:06;8.10;;;1.52;;
325;SDS011;150;52.352;14.058;2023-09-30T09:41:01;4.10;;;1.50;;
325;SDS011;150;52.352;14.058;2023-09-30T09:43:48;7.07;;;1.98;;
325;SDS011;150;52.352;14.058;2023-09-30T09:46:42;6.07;;;1.80;;
325;SDS011;150;52.352;14.058;2023-09-30T09:49:39;6.47;;;1.88;;
325;SDS011;150;52.352;14.058;2023-09-30T09:52:19;4.10;;;1.75;;
325;SDS011;150;52.352;14.058;2023-09-30T09:55:07;6.15;;;1.92;;
325;SDS011;150;52.352;14.058;2023-09-30T09:57:47;5.55;;;1.50;;
325;SDS011;150;52.352;14.058;2023-09-30T10:00:32;6.70;;;2.15;;
325;SDS011;150;52.352;14.058;2023-09-30T10:03:15;6.90;;;1.70;;
325;SDS011;150;52.352;14.058;2023-09-30T10:06:01;4.55;;;1.35;;
325;SDS011;150;52.352;14.058;2023-09-30T10:08:51;6.00;;;1.40;;
325;SDS011;150;52.352;14.058;2023-09-30T10:11:32;5.60;;;1.30;;
325;SDS011;150;52.352;14.058;2023-09-30T10:14:32;3.47;;;1.80;;
325;SDS011;150;52.352;14.058;2023-09-30T10:17:20;5.13;;;1.67;;
325;SDS011;150;52.352;14.058;2023-09-30T10:24:33;7.80;;;1.90;;
325;SDS011;150;52.352;14.058;2023-09-30T10:30:27;5.43;;;2.50;;
325;SDS011;150;52.352;14.058;2023-09-30T10:33:27;5.95;;;2.25;;
325;SDS011;150;52.352;14.058;2023-09-30T10:43:06;5.05;;;2.20;;
325;SDS011;150;52.352;14.058;2023-09-30T10:52:09;6.67;;;2.37;;
325;SDS011;150;52.352;14.058;2023-09-30T11:02:48;4.55;;;2.00;;
325;SDS011;150;52.352;14.058;2023-09-30T11:06:30;3.45;;;1.33;;
325;SDS011;150;52.352;14.058;2023-09-30T11:09:48;6.20;;;1.33;;
325;SDS011;150;52.352;14.058;2023-09-30T11:19:59;2.47;;;1.00;;
325;SDS011;150;52.352;14.058;2023-09-30T11:23:07;3.43;;;1.20;;
325;SDS011;150;52.352;14.058;2023-09-30T11:30:06;4.47;;;1.20;;
325;SDS011;150;52.352;14.058;2023-09-30T11:54:03;5.47;;;1.30;;
325;SDS011;150;52.352;14.058;2023-09-30T11:57:29;3.70;;;0.97;;
325;SDS011;150;52.352;14.058;2023-09-30T12:04:06;4.00;;;1.20;;
325;SDS011;150;52.352;14.058;2023-09-30T12:16:28;4.82;;;1.25;;
325;SDS011;150;52.352;14.058;2023-09-30T12:33:40;5.07;;;1.52;;
325;SDS011;150;52.352;14.058;2023-09-30T12:39:23;2.58;;;1.13;;
325;SDS011;150;52.352;14.058;2023-09-30T12:42:22;3.58;;;1.00;;
325;SDS011;150;52.352;14.058;2023-09-30T12:45:49;5.25;;;1.40;;
325;SDS011;150;52.352;14.058;2023-09-30T12:51:48;3.67;;;1.03;;
325;SDS011;150;52.352;14.058;2023-09-30T12:57:40;7.10;;;1.60;;
325;SDS011;150;52.352;14.058;2023-09-30T13:00:40;6.05;;;1.30;;
325;SDS011;150;52.352;14.058;2023-09-30T13:03:38;3.13;;;1.30;;
325;SDS011;150;52.352;14.058;2023-09-30T13:06:57;3.95;;;1.50;;
325;SDS011;150;52.352;14.058;2023-09-30T13:09:38;5.28;;;1.65;;
325;SDS011;150;52.352;14.058;2023-09-30T13:12:45;4.90;;;2.63;;
325;SDS011;150;52.352;14.058;2023-09-30T13:15:28;5.65;;;1.80;;
325;SDS011;150;52.352;14.058;2023-09-30T13:18:05;4.50;;;1.60;;
325;SDS011;150;52.352;14.058;2023-09-30T13:20:43;5.05;;;1.20;;
325;SDS011;150;52.352;14.058;2023-09-30T13:23:19;4.70;;;1.40;;
325;SDS011;150;52.352;14.058;2023-09-30T13:29:14;3.90;;;0.90;;
325;SDS011;150;52.352;14.058;2023-09-30T13:32:00;2.30;;;0.70;;
325;SDS011;150;52.352;14.058;2023-09-30T13:34:44;3.22;;;0.90;;
325;SDS011;150;52.352;14.058;2023-09-30T13:37:37;4.37;;;1.80;;
325;SDS011;150;52.352;14.058;2023-09-30T13:43:24;7.80;;;2.72;;
325;SDS011;150;52.352;14.058;2023-09-30T13:46:05;6.80;;;1.35;;
325;SDS011;150;52.352;14.058;2023-09-30T13:48:49;3.47;;;1.23;;
325;SDS011;150;52.352;14.058;2023-09-30T13:51:53;4.10;;;1.27;;
325;SDS011;150;52.352;14.058;2023-09-30T13:54:41;5.53;;;1.25;;
325;SDS011;150;52.352;14.058;2023-09-30T13:57:20;4.90;;;2.30;;
325;SDS011;150;52.352;14.058;2023-09-30T13:59:52;3.40;;;1.50;;
325;SDS011;150;52.352;14.058;2023-09-30T14:02:24;5.30;;;1.73;;
325;SDS011;150;52.352;14.058;2023-09-30T14:04:58;5.80;;;1.83;;
325;SDS011;150;52.352;14.058;2023-09-30T14:07:43;7.10;;;1.70;;
325;SDS011;150;52.352;14.058;2023-09-30T14:10:47;3.30;;;0.80;;
325;SDS011;150;52.352;14.058;2023-09-30T14:13:40;3.58;;;1.20;;
325;SDS011;150;52.352;14.058;2023-09-30T14:16:34;5.40;;;1.40;;
325;SDS011;150;52.352;14.058;2023-09-30T14:19:17;6.10;;;1.20;;
325;SDS011;150;52.352;14.058;2023-09-30T14:22:02;2.30;;;1.00;;
325;SDS011;150;52.352;14.058;2023-09-30T14:24:39;2.03;;;1.13;;
325;SDS011;150;52.352;14.058;2023-09-30T14:30:58;5.00;;;1.38;;
325;SDS011;150;52.352;14.058;2023-09-30T14:34:23;2.63;;;0.60;;
325;SDS011;150;52.352;14.058;2023-09-30T14:40:03;3.70;;;1.23;;
325;SDS011;150;52.352;14.058;2023-09-30T14:42:45;3.17;;;0.95;;
325;SDS011;150;52.352;14.058;2023-09-30T14:45:48;4.60;;;1.45;;
325;SDS011;150;52.352;14.058;2023-09-30T14:49:25;4.32;;;1.55;;
325;SDS011;150;52.352;14.058;2023-09-30T14:56:27;4.00;;;1.75;;
325;SDS011;150;52.352;14.058;2023-09-30T14:59:09;2.97;;;1.20;;
325;SDS011;150;52.352;14.058;2023-09-30T15:01:51;3.80;;;1.00;;
325;SDS011;150;52.352;14.058;2023-09-30T15:08:05;3.65;;;1.23;;
325;SDS011;150;52.352;14.058;2023-09-30T15:10:57;3.75;;;0.90;;
325;SDS011;150;52.352;14.058;2023-09-30T15:13:55;1.88;;;0.77;;
325;SDS011;150;52.352;14.058;2023-09-30T15:16:41;4.15;;;1.27;;
325;SDS011;150;52.352;14.058;2023-09-30T15:19:37;2.38;;;0.90;;
325;SDS011;150;52.352;14.058;2023-09-30T15:22:27;7.50;;;2.35;;
325;SDS011;150;52.352;14.058;2023-09-30T15:25:08;3.20;;;0.90;;
325;SDS011;150;52.352;14.058;2023-09-30T15:29:12;2.95;;;0.80;;
325;SDS011;150;52.352;14.058;2023-09-30T15:30:58;2.35;;;1.25;;
325;SDS011;150;52.352;14.058;2023-09-30T15:34:15;2.53;;;1.45;;
325;SDS011;150;52.352;14.058;2023-09-30T15:37:06;6.70;;;0.90;;
325;SDS011;150;52.352;14.058;2023-09-30T15:39:55;4.25;;;1.33;;
325;SDS011;150;52.352;14.058;2023-09-30T15:49:09;7.60;;;2.20;;
325;SDS011;150;52.352;14.058;2023-09-30T15:51:57;3.85;;;1.48;;
325;SDS011;150;52.352;14.058;2023-09-30T15:54:38;4.78;;;1.60;;
325;SDS011;150;52.352;14.058;2023-09-30T15:57:16;4.60;;;2.97;;
325;SDS011;150;52.352;14.058;2023-09-30T16:00:03;4.25;;;2.00;;
325;SDS011;150;52.352;14.058;2023-09-30T16:03:05;2.83;;;1.40;;
325;SDS011;150;52.352;14.058;2023-09-30T16:05:44;2.90;;;1.47;;
325;SDS011;150;52.352;14.058;2023-09-30T16:08:13;2.78;;;1.30;;
325;SDS011;150;52.352;14.058;2023-09-30T16:10:47;5.32;;;1.25;;
325;SDS011;150;52.352;14.058;2023-09-30T16:13:41;2.92;;;1.23;;
325;SDS011;150;52.352;14.058;2023-09-30T16:17:00;2.28;;;1.27;;
325;SDS011;150;52.352;14.058;2023-09-30T16:23:18;6.95;;;1.50;;
325;SDS011;150;52.352;14.058;2023-09-30T16:25:55;4.77;;;1.60;;
325;SDS011;150;52.352;14.058;2023-09-30T16:28:38;3.08;;;1.55;;
325;SDS011;150;52.352;14.058;2023-09-30T16:31:18;4.50;;;1.40;;
325;SDS011;150;52.352;14.058;2023-09-30T16:33:59;6.00;;;1.80;;
325;SDS011;150;52.352;14.058;2023-09-30T16:39:28;3.15;;;1.50;;
325;SDS011;150;52.352;14.058;2023-09-30T16:42:01;6.30;;;3.17;;
325;SDS011;150;52.352;14.058;2023-09-30T16:44:44;8.32;;;3.55;;
325;SDS011;150;52.352;14.058;2023-09-30T16:47:30;8.03;;;4.30;;
325;SDS011;150;52.352;14.058;2023-09-30T16:50:41;7.32;;;5.88;;
325;SDS011;150;52.352;14.058;2023-09-30T16:56:44;6.70;;;3.70;;
325;SDS011;150;52.352;14.058;2023-09-30T16:59:19;5.93;;;3.28;;
325;SDS011;150;52.352;14.058;2023-09-30T17:02:00;5.65;;;2.72;;
325;SDS011;150;52.352;14.058;2023-09-30T17:04:41;3.72;;;2.50;;
325;SDS011;150;52.352;14.058;2023-09-30T17:07:20;5.07;;;2.40;;
325;SDS011;150;52.352;14.058;2023-09-30T17:10:00;6.50;;;3.00;;
325;SDS011;150;52.352;14.058;2023-09-30T17:12:40;7.03;;;4.75;;
325;SDS011;150;52.352;14.058;2023-09-30T17:15:17;7.22;;;3.95;;
325;SDS011;150;52.352;14.058;2023-09-30T17:18:00;9.25;;;4.95;;
325;SDS011;150;52.352;14.058;2023-09-30T17:20:47;7.32;;;4.13;;
325;SDS011;150;52.352;14.058;2023-09-30T17:23:38;8.50;;;3.63;;
325;SDS011;150;52.352;14.058;2023-09-30T17:26:20;14.90;;;9.63;;
325;SDS011;150;52.352;14.058;2023-09-30T17:29:03;9.45;;;6.80;;
325;SDS011;150;52.352;14.058;2023-09-30T17:31:30;7.32;;;4.68;;
325;SDS011;150;52.352;14.058;2023-09-30T17:33:57;5.30;;;4.43;;
325;SDS011;150;52.352;14.058;2023-09-30T17:36:24;7.57;;;4.90;;
325;SDS011;150;52.352;14.058;2023-09-30T17:38:51;6.22;;;4.07;;
325;SDS011;150;52.352;14.058;2023-09-30T17:41:18;7.53;;;4.38;;
325;SDS011;150;52.352;14.058;2023-09-30T17:43:45;12.05;;;5.72;;
325;SDS011;150;52.352;14.058;2023-09-30T17:46:13;10.35;;;6.60;;
325;SDS011;150;52.352;14.058;2023-09-30T17:48:43;12.43;;;6.90;;
325;SDS011;150;52.352;14.058;2023-09-30T17:51:11;6.38;;;4.35;;
325;SDS011;150;52.352;14.058;2023-09-30T17:53:39;5.97;;;3.40;;
325;SDS011;150;52.352;14.058;2023-09-30T17:56:11;7.80;;;3.30;;
325;SDS011;150;52.352;14.058;2023-09-30T17:58:39;4.57;;;3.22;;
325;SDS011;150;52.352;14.058;2023-09-30T18:01:05;4.28;;;3.15;;
325;SDS011;150;52.352;14.058;2023-09-30T18:03:33;5.38;;;3.45;;
325;SDS011;150;52.352;14.058;2023-09-30T18:06:04;4.07;;;2.95;;
325;SDS011;150;52.352;14.058;2023-09-30T18:08:31;6.00;;;2.92;;
325;SDS011;150;52.352;14.058;2023-09-30T18:10:58;2.88;;;2.20;;
325;SDS011;150;52.352;14.058;2023-09-30T18:13:25;7.28;;;3.40;;
325;SDS011;150;52.352;14.058;2023-09-30T18:15:52;3.83;;;2.38;;
325;SDS011;150;52.352;14.058;2023-09-30T18:18:19;6.40;;;5.40;;
325;SDS011;150;52.352;14.058;2023-09-30T18:20:47;5.90;;;4.03;;
325;SDS011;150;52.352;14.058;2023-09-30T18:23:13;4.93;;;2.90;;
325;SDS011;150;52.352;14.058;2023-09-30T18:25:40;3.90;;;2.70;;
325;SDS011;150;52.352;14.058;2023-09-30T18:28:07;4.97;;;2.83;;
325;SDS011;150;52.352;14.058;2023-09-30T18:30:33;8.05;;;4.40;;
325;SDS011;150;52.352;14.058;2023-09-30T18:33:01;6.15;;;4.05;;
325;SDS011;150;52.352;14.058;2023-09-30T18:35:28;8.45;;;3.83;;
325;SDS011;150;52.352;14.058;2023-09-30T18:37:56;8.43;;;4.05;;
325;SDS011;150;52.352;14.058;2023-09-30T18:40:23;4.45;;;3.00;;
325;SDS011;150;52.352;14.058;2023-09-30T18:42:49;10.05;;;5.72;;
325;SDS011;150;52.352;14.058;2023-09-30T18:45:16;9.53;;;6.90;;
325;SDS011;150;52.352;14.058;2023-09-30T18:47:43;7.47;;;5.15;;
325;SDS011;150;52.352;14.058;2023-09-30T18:50:09;5.50;;;3.67;;
325;SDS011;150;52.352;14.058;2023-09-30T18:52:36;5.57;;;3.97;;
325;SDS011;150;52.352;14.058;2023-09-30T18:55:07;7.65;;;5.03;;
325;SDS011;150;52.352;14.058;2023-09-30T18:57:35;7.78;;;5.07;;
325;SDS011;150;52.352;14.058;2023-09-30T19:00:02;7.00;;;4.70;;
325;SDS011;150;52.352;14.058;2023-09-30T19:02:30;5.05;;;3.33;;